sensor_id;sensor_type;location;lat;lon;timestamp;temperature;humidity
10276;DHT22;5183;51.190;6.820;2023-02-28T00:01:29;-1.00;1.00
10276;DHT22;5183;51.190;6.820;2023-02-28T00:03:56;-1.10;1.00
10276;DHT22;5183;51.190;6.820;2023-02-28T00:06:23;-1.20;1.00
10276;DHT22;5183;51.190;6.820;2023-02-28T00:08:50;-1.10;1.00
10276;DHT22;5183;51.190;6.820;2023-02-28T00:11:17;-1.10;1.00
10276;DHT22;5183;51.190;6.820;2023-02-28T00:13:47;-1.10;1.00
10276;DHT22;5183;51.190;6.820;2023-02-28T00:16:17;-1.20;1.00
10276;DHT22;5183;51.190;6.820;2023-02-28T00:18:45;-1.30;1.00
10276;DHT22;5183;51.190;6.820;2023-02-28T00:21:13;-1.20;1.00
10276;DHT22;5183;51.190;6.820;2023-02-28T00:23:40;-1.20;1.00
10276;DHT22;5183;51.190;6.820;2023-02-28T00:26:06;-1.20;1.00
10276;DHT22;5183;51.190;6.820;2023-02-28T00:28:33;-1.30;1.00
10276;DHT22;5183;51.190;6.820;2023-02-28T00:31:00;-1.30;1.00
10276;DHT22;5183;51.190;6.820;2023-02-28T00:33:29;-1.30;1.00
10276;DHT22;5183;51.190;6.820;2023-02-28T00:36:04;-1.30;1.00
10276;DHT22;5183;51.190;6.820;2023-02-28T00:38:31;-1.20;1.00
10276;DHT22;5183;51.190;6.820;2023-02-28T00:40:58;-1.20;1.00
10276;DHT22;5183;51.190;6.820;2023-02-28T00:43:30;-1.20;1.00
10276;DHT22;5183;51.190;6.820;2023-02-28T00:45:57;-1.10;1.00
10276;DHT22;5183;51.190;6.820;2023-02-28T00:48:24;-1.00;1.00
10276;DHT22;5183;51.190;6.820;2023-02-28T00:50:52;-1.00;1.00
10276;DHT22;5183;51.190;6.820;2023-02-28T00:53:19;-1.00;1.00
10276;DHT22;5183;51.190;6.820;2023-02-28T00:55:47;-1.00;1.00
10276;DHT22;5183;51.190;6.820;2023-02-28T00:58:14;-1.10;1.00
10276;DHT22;5183;51.190;6.820;2023-02-28T01:00:41;-1.10;1.00
10276;DHT22;5183;51.190;6.820;2023-02-28T01:03:08;-1.00;1.00
10276;DHT22;5183;51.190;6.820;2023-02-28T01:05:35;-1.00;1.00
10276;DHT22;5183;51.190;6.820;2023-02-28T01:08:03;-1.00;1.00
10276;DHT22;5183;51.190;6.820;2023-02-28T01:10:30;-1.20;1.00
10276;DHT22;5183;51.190;6.820;2023-02-28T01:12:57;-1.30;1.00
10276;DHT22;5183;51.190;6.820;2023-02-28T01:15:24;-1.30;8.70
10276;DHT22;5183;51.190;6.820;2023-02-28T01:17:51;-1.40;1.00
10276;DHT22;5183;51.190;6.820;2023-02-28T01:20:18;-1.30;8.80
10276;DHT22;5183;51.190;6.820;2023-02-28T01:22:45;-1.40;1.00
10276;DHT22;5183;51.190;6.820;2023-02-28T01:25:14;-1.40;4.90
10276;DHT22;5183;51.190;6.820;2023-02-28T01:27:41;-1.50;1.00
10276;DHT22;5183;51.190;6.820;2023-02-28T01:30:09;-1.60;8.30
10276;DHT22;5183;51.190;6.820;2023-02-28T01:32:36;-1.70;17.10
10276;DHT22;5183;51.190;6.820;2023-02-28T01:35:03;-1.70;22.90
10276;DHT22;5183;51.190;6.820;2023-02-28T01:37:30;-1.70;22.60
10276;DHT22;5183;51.190;6.820;2023-02-28T01:39:57;-1.70;21.80
10276;DHT22;5183;51.190;6.820;2023-02-28T01:42:25;-1.70;33.50
10276;DHT22;5183;51.190;6.820;2023-02-28T01:45:07;-1.80;34.10
10276;DHT22;5183;51.190;6.820;2023-02-28T01:47:42;-1.80;47.50
10276;DHT22;5183;51.190;6.820;2023-02-28T01:50:14;-1.80;35.20
10276;DHT22;5183;51.190;6.820;2023-02-28T01:52:42;-1.80;54.20
10276;DHT22;5183;51.190;6.820;2023-02-28T01:55:11;-1.60;63.90
10276;DHT22;5183;51.190;6.820;2023-02-28T01:57:42;-1.50;45.10
10276;DHT22;5183;51.190;6.820;2023-02-28T02:00:12;-1.50;52.60
10276;DHT22;5183;51.190;6.820;2023-02-28T02:02:42;-1.40;37.00
10276;DHT22;5183;51.190;6.820;2023-02-28T02:05:11;-1.40;40.30
10276;DHT22;5183;51.190;6.820;2023-02-28T02:07:40;-1.50;40.80
10276;DHT22;5183;51.190;6.820;2023-02-28T02:10:12;-1.50;29.20
10276;DHT22;5183;51.190;6.820;2023-02-28T02:12:56;-1.70;49.00
10276;DHT22;5183;51.190;6.820;2023-02-28T02:15:31;-1.70;71.40
10276;DHT22;5183;51.190;6.820;2023-02-28T02:18:04;-1.80;66.00
10276;DHT22;5183;51.190;6.820;2023-02-28T02:20:51;-1.90;72.50
10276;DHT22;5183;51.190;6.820;2023-02-28T02:23:58;-1.90;92.50
10276;DHT22;5183;51.190;6.820;2023-02-28T02:26:44;-2.00;99.50
10276;DHT22;5183;51.190;6.820;2023-02-28T02:29:47;-2.00;99.90
10276;DHT22;5183;51.190;6.820;2023-02-28T02:35:47;-1.80;99.90
10276;DHT22;5183;51.190;6.820;2023-02-28T02:38:20;-1.70;99.30
10276;DHT22;5183;51.190;6.820;2023-02-28T02:40:55;-1.70;94.70
10276;DHT22;5183;51.190;6.820;2023-02-28T02:43:27;-1.70;94.50
10276;DHT22;5183;51.190;6.820;2023-02-28T02:45:59;-1.70;91.30
10276;DHT22;5183;51.190;6.820;2023-02-28T02:48:31;-1.80;90.60
10276;DHT22;5183;51.190;6.820;2023-02-28T02:51:05;-1.80;99.90
10276;DHT22;5183;51.190;6.820;2023-02-28T02:53:40;-1.80;96.60
10276;DHT22;5183;51.190;6.820;2023-02-28T02:56:08;-1.80;99.20
10276;DHT22;5183;51.190;6.820;2023-02-28T02:58:38;-1.90;97.20
10276;DHT22;5183;51.190;6.820;2023-02-28T03:01:08;-2.00;92.20
10276;DHT22;5183;51.190;6.820;2023-02-28T03:03:37;-2.00;99.10
10276;DHT22;5183;51.190;6.820;2023-02-28T03:06:06;-2.00;99.90
10276;DHT22;5183;51.190;6.820;2023-02-28T03:08:35;-2.10;99.90
10276;DHT22;5183;51.190;6.820;2023-02-28T03:11:05;-2.10;99.90
10276;DHT22;5183;51.190;6.820;2023-02-28T03:13:45;-2.10;99.90
10276;DHT22;5183;51.190;6.820;2023-02-28T03:16:32;-2.10;99.90
10276;DHT22;5183;51.190;6.820;2023-02-28T03:19:12;-2.20;99.90
10276;DHT22;5183;51.190;6.820;2023-02-28T03:21:53;-2.20;99.90
10276;DHT22;5183;51.190;6.820;2023-02-28T03:24:27;-2.10;99.90
10276;DHT22;5183;51.190;6.820;2023-02-28T03:27:06;-2.00;99.90
10276;DHT22;5183;51.190;6.820;2023-02-28T03:29:36;-2.00;99.90
10276;DHT22;5183;51.190;6.820;2023-02-28T03:32:10;-2.10;99.90
10276;DHT22;5183;51.190;6.820;2023-02-28T03:34:42;-2.10;99.90
10276;DHT22;5183;51.190;6.820;2023-02-28T03:37:17;-2.00;99.90
10276;DHT22;5183;51.190;6.820;2023-02-28T03:39:49;-2.00;99.90
10276;DHT22;5183;51.190;6.820;2023-02-28T03:42:20;-2.00;99.90
10276;DHT22;5183;51.190;6.820;2023-02-28T03:44:49;-2.00;99.90
10276;DHT22;5183;51.190;6.820;2023-02-28T03:47:22;-2.00;99.90
10276;DHT22;5183;51.190;6.820;2023-02-28T03:49:54;-2.00;99.90
10276;DHT22;5183;51.190;6.820;2023-02-28T03:52:27;-2.00;99.90
10276;DHT22;5183;51.190;6.820;2023-02-28T03:55:00;-2.00;99.90
10276;DHT22;5183;51.190;6.820;2023-02-28T03:57:37;-2.10;99.80
10276;DHT22;5183;51.190;6.820;2023-02-28T04:00:09;-2.00;99.90
10276;DHT22;5183;51.190;6.820;2023-02-28T04:02:38;-2.10;99.90
10276;DHT22;5183;51.190;6.820;2023-02-28T04:05:05;-2.10;97.50
10276;DHT22;5183;51.190;6.820;2023-02-28T04:07:34;-2.20;97.70
10276;DHT22;5183;51.190;6.820;2023-02-28T04:10:01;-2.20;99.90
10276;DHT22;5183;51.190;6.820;2023-02-28T04:12:27;-2.20;99.90
10276;DHT22;5183;51.190;6.820;2023-02-28T04:14:54;-2.20;97.40
10276;DHT22;5183;51.190;6.820;2023-02-28T04:17:21;-2.20;89.30
10276;DHT22;5183;51.190;6.820;2023-02-28T04:19:48;-2.20;85.30
10276;DHT22;5183;51.190;6.820;2023-02-28T04:22:15;-2.20;82.30
10276;DHT22;5183;51.190;6.820;2023-02-28T04:24:44;-2.30;89.30
10276;DHT22;5183;51.190;6.820;2023-02-28T04:27:11;-2.40;65.20
10276;DHT22;5183;51.190;6.820;2023-02-28T04:29:38;-2.40;92.90
10276;DHT22;5183;51.190;6.820;2023-02-28T04:32:05;-2.30;83.50
10276;DHT22;5183;51.190;6.820;2023-02-28T04:34:32;-2.40;75.00
10276;DHT22;5183;51.190;6.820;2023-02-28T04:36:59;-2.40;63.20
10276;DHT22;5183;51.190;6.820;2023-02-28T04:39:26;-2.30;66.20
10276;DHT22;5183;51.190;6.820;2023-02-28T04:41:54;-2.40;54.10
10276;DHT22;5183;51.190;6.820;2023-02-28T04:44:21;-2.40;55.40
10276;DHT22;5183;51.190;6.820;2023-02-28T04:46:49;-2.40;51.20
10276;DHT22;5183;51.190;6.820;2023-02-28T04:49:15;-2.50;48.20
10276;DHT22;5183;51.190;6.820;2023-02-28T04:51:43;-2.50;69.30
10276;DHT22;5183;51.190;6.820;2023-02-28T04:54:09;-2.50;73.50
10276;DHT22;5183;51.190;6.820;2023-02-28T04:56:36;-2.60;66.20
10276;DHT22;5183;51.190;6.820;2023-02-28T04:59:04;-2.60;56.30
10276;DHT22;5183;51.190;6.820;2023-02-28T05:01:32;-2.50;42.90
10276;DHT22;5183;51.190;6.820;2023-02-28T05:04:02;-2.60;46.30
10276;DHT22;5183;51.190;6.820;2023-02-28T05:06:31;-2.60;64.60
10276;DHT22;5183;51.190;6.820;2023-02-28T05:08:58;-2.70;51.20
10276;DHT22;5183;51.190;6.820;2023-02-28T05:11:27;-2.80;55.70
10276;DHT22;5183;51.190;6.820;2023-02-28T05:13:59;-2.80;59.10
10276;DHT22;5183;51.190;6.820;2023-02-28T05:16:27;-2.90;72.30
10276;DHT22;5183;51.190;6.820;2023-02-28T05:18:54;-2.90;90.10
10276;DHT22;5183;51.190;6.820;2023-02-28T05:21:24;-2.80;58.90
10276;DHT22;5183;51.190;6.820;2023-02-28T05:23:52;-2.80;62.50
10276;DHT22;5183;51.190;6.820;2023-02-28T05:26:19;-2.80;46.50
10276;DHT22;5183;51.190;6.820;2023-02-28T05:28:46;-2.80;49.20
10276;DHT22;5183;51.190;6.820;2023-02-28T05:31:13;-2.80;32.90
10276;DHT22;5183;51.190;6.820;2023-02-28T05:33:42;-2.80;26.30
10276;DHT22;5183;51.190;6.820;2023-02-28T05:36:09;-2.90;25.30
10276;DHT22;5183;51.190;6.820;2023-02-28T05:38:36;-2.90;23.60
10276;DHT22;5183;51.190;6.820;2023-02-28T05:41:05;-2.90;26.70
10276;DHT22;5183;51.190;6.820;2023-02-28T05:43:32;-2.90;21.60
10276;DHT22;5183;51.190;6.820;2023-02-28T05:46:01;-2.90;19.30
10276;DHT22;5183;51.190;6.820;2023-02-28T05:48:28;-2.90;9.00
10276;DHT22;5183;51.190;6.820;2023-02-28T05:50:57;-3.00;10.70
10276;DHT22;5183;51.190;6.820;2023-02-28T05:53:23;-3.00;13.50
10276;DHT22;5183;51.190;6.820;2023-02-28T05:55:51;-3.10;17.60
10276;DHT22;5183;51.190;6.820;2023-02-28T05:58:18;-3.10;20.40
10276;DHT22;5183;51.190;6.820;2023-02-28T06:00:45;-3.10;19.20
10276;DHT22;5183;51.190;6.820;2023-02-28T06:03:12;-3.20;19.00
10276;DHT22;5183;51.190;6.820;2023-02-28T06:05:38;-3.10;23.10
10276;DHT22;5183;51.190;6.820;2023-02-28T06:08:07;-3.20;20.10
10276;DHT22;5183;51.190;6.820;2023-02-28T06:10:33;-3.10;23.50
10276;DHT22;5183;51.190;6.820;2023-02-28T06:13:00;-3.10;9.20
10276;DHT22;5183;51.190;6.820;2023-02-28T06:15:28;-3.00;21.60
10276;DHT22;5183;51.190;6.820;2023-02-28T06:17:55;-2.90;14.30
10276;DHT22;5183;51.190;6.820;2023-02-28T06:20:23;-2.90;1.00
10276;DHT22;5183;51.190;6.820;2023-02-28T06:22:51;-2.70;1.00
10276;DHT22;5183;51.190;6.820;2023-02-28T06:25:21;-2.60;1.00
10276;DHT22;5183;51.190;6.820;2023-02-28T06:27:48;-2.60;1.00
10276;DHT22;5183;51.190;6.820;2023-02-28T06:30:15;-2.50;1.00
10276;DHT22;5183;51.190;6.820;2023-02-28T06:32:42;-2.40;1.00
10276;DHT22;5183;51.190;6.820;2023-02-28T06:35:09;-2.40;1.00
10276;DHT22;5183;51.190;6.820;2023-02-28T06:37:35;-2.30;1.00
10276;DHT22;5183;51.190;6.820;2023-02-28T06:40:03;-2.30;1.00
10276;DHT22;5183;51.190;6.820;2023-02-28T06:42:33;-2.30;1.00
10276;DHT22;5183;51.190;6.820;2023-02-28T06:45:01;-2.30;1.00
10276;DHT22;5183;51.190;6.820;2023-02-28T06:47:34;-2.30;1.00
10276;DHT22;5183;51.190;6.820;2023-02-28T06:50:01;-2.20;1.00
10276;DHT22;5183;51.190;6.820;2023-02-28T06:52:28;-2.20;1.00
10276;DHT22;5183;51.190;6.820;2023-02-28T06:54:55;-2.20;1.00
10276;DHT22;5183;51.190;6.820;2023-02-28T06:57:27;-2.00;1.00
10276;DHT22;5183;51.190;6.820;2023-02-28T06:59:57;-2.00;1.00
10276;DHT22;5183;51.190;6.820;2023-02-28T07:02:24;-2.00;1.00
10276;DHT22;5183;51.190;6.820;2023-02-28T07:04:51;-2.00;1.00
10276;DHT22;5183;51.190;6.820;2023-02-28T07:07:18;-1.90;1.00
10276;DHT22;5183;51.190;6.820;2023-02-28T07:09:45;-2.00;1.00
10276;DHT22;5183;51.190;6.820;2023-02-28T07:12:12;-1.90;1.00
10276;DHT22;5183;51.190;6.820;2023-02-28T07:14:38;-1.90;1.00
10276;DHT22;5183;51.190;6.820;2023-02-28T07:17:08;-1.90;1.00
10276;DHT22;5183;51.190;6.820;2023-02-28T07:19:37;-1.80;1.00
10276;DHT22;5183;51.190;6.820;2023-02-28T07:22:04;-1.70;1.00
10276;DHT22;5183;51.190;6.820;2023-02-28T07:24:31;-1.70;1.00
10276;DHT22;5183;51.190;6.820;2023-02-28T07:26:59;-1.60;1.00
10276;DHT22;5183;51.190;6.820;2023-02-28T07:29:26;-1.60;1.00
10276;DHT22;5183;51.190;6.820;2023-02-28T07:31:53;-1.50;1.00
10276;DHT22;5183;51.190;6.820;2023-02-28T07:34:22;-1.40;1.00
10276;DHT22;5183;51.190;6.820;2023-02-28T07:36:49;-1.40;1.00
10276;DHT22;5183;51.190;6.820;2023-02-28T07:39:18;-1.30;1.00
10276;DHT22;5183;51.190;6.820;2023-02-28T07:41:45;-1.30;1.00
10276;DHT22;5183;51.190;6.820;2023-02-28T07:44:12;-1.20;1.00
10276;DHT22;5183;51.190;6.820;2023-02-28T07:46:39;-1.30;1.00
10276;DHT22;5183;51.190;6.820;2023-02-28T07:49:06;-1.20;1.00
10276;DHT22;5183;51.190;6.820;2023-02-28T07:51:34;-1.10;1.00
10276;DHT22;5183;51.190;6.820;2023-02-28T07:54:01;-1.10;1.00
10276;DHT22;5183;51.190;6.820;2023-02-28T07:56:28;-0.80;1.00
10276;DHT22;5183;51.190;6.820;2023-02-28T07:58:54;-0.80;1.00
10276;DHT22;5183;51.190;6.820;2023-02-28T08:01:22;-0.70;1.00
10276;DHT22;5183;51.190;6.820;2023-02-28T08:03:48;-0.60;1.00
10276;DHT22;5183;51.190;6.820;2023-02-28T08:06:17;-0.60;1.00
10276;DHT22;5183;51.190;6.820;2023-02-28T08:08:46;-0.50;1.00
10276;DHT22;5183;51.190;6.820;2023-02-28T08:11:13;-0.40;1.00
10276;DHT22;5183;51.190;6.820;2023-02-28T08:13:40;-0.30;1.00
10276;DHT22;5183;51.190;6.820;2023-02-28T08:16:09;-0.20;1.00
10276;DHT22;5183;51.190;6.820;2023-02-28T08:18:36;-0.10;1.00
10276;DHT22;5183;51.190;6.820;2023-02-28T08:21:06;-0.10;1.00
10276;DHT22;5183;51.190;6.820;2023-02-28T08:23:33;0.00;1.00
10276;DHT22;5183;51.190;6.820;2023-02-28T08:26:02;0.10;1.00
10276;DHT22;5183;51.190;6.820;2023-02-28T08:28:29;0.10;1.00
10276;DHT22;5183;51.190;6.820;2023-02-28T08:30:56;0.10;1.00
10276;DHT22;5183;51.190;6.820;2023-02-28T08:33:24;0.20;1.00
10276;DHT22;5183;51.190;6.820;2023-02-28T08:35:52;0.30;1.00
10276;DHT22;5183;51.190;6.820;2023-02-28T08:38:20;0.30;1.00
10276;DHT22;5183;51.190;6.820;2023-02-28T08:40:47;0.30;1.00
10276;DHT22;5183;51.190;6.820;2023-02-28T08:43:15;0.50;1.00
10276;DHT22;5183;51.190;6.820;2023-02-28T08:45:42;0.50;1.00
10276;DHT22;5183;51.190;6.820;2023-02-28T08:48:09;0.50;1.00
10276;DHT22;5183;51.190;6.820;2023-02-28T08:50:35;0.60;1.00
10276;DHT22;5183;51.190;6.820;2023-02-28T08:53:02;0.70;1.00
10276;DHT22;5183;51.190;6.820;2023-02-28T08:55:29;0.70;1.00
10276;DHT22;5183;51.190;6.820;2023-02-28T08:57:56;0.90;1.00
10276;DHT22;5183;51.190;6.820;2023-02-28T09:00:25;1.00;1.00
10276;DHT22;5183;51.190;6.820;2023-02-28T09:02:52;0.90;1.00
10276;DHT22;5183;51.190;6.820;2023-02-28T09:05:20;0.90;1.00
10276;DHT22;5183;51.190;6.820;2023-02-28T09:07:46;1.00;1.00
10276;DHT22;5183;51.190;6.820;2023-02-28T09:10:13;1.00;1.00
10276;DHT22;5183;51.190;6.820;2023-02-28T09:12:40;1.10;1.00
10276;DHT22;5183;51.190;6.820;2023-02-28T09:15:08;1.10;1.00
10276;DHT22;5183;51.190;6.820;2023-02-28T09:17:36;1.10;1.00
10276;DHT22;5183;51.190;6.820;2023-02-28T09:20:03;1.10;1.00
10276;DHT22;5183;51.190;6.820;2023-02-28T09:22:31;1.20;1.00
10276;DHT22;5183;51.190;6.820;2023-02-28T09:24:58;1.50;1.00
10276;DHT22;5183;51.190;6.820;2023-02-28T09:27:24;1.60;1.00
10276;DHT22;5183;51.190;6.820;2023-02-28T09:29:51;1.60;1.00
10276;DHT22;5183;51.190;6.820;2023-02-28T09:32:18;1.70;1.00
10276;DHT22;5183;51.190;6.820;2023-02-28T09:34:46;1.90;1.00
10276;DHT22;5183;51.190;6.820;2023-02-28T09:37:13;2.20;1.00
10276;DHT22;5183;51.190;6.820;2023-02-28T09:39:40;2.30;1.00
10276;DHT22;5183;51.190;6.820;2023-02-28T09:42:19;2.50;1.00
10276;DHT22;5183;51.190;6.820;2023-02-28T09:44:47;2.60;1.00
10276;DHT22;5183;51.190;6.820;2023-02-28T09:47:21;2.70;1.00
10276;DHT22;5183;51.190;6.820;2023-02-28T09:49:54;2.80;1.00
10276;DHT22;5183;51.190;6.820;2023-02-28T09:52:24;2.80;1.00
10276;DHT22;5183;51.190;6.820;2023-02-28T09:54:54;2.90;1.00
10276;DHT22;5183;51.190;6.820;2023-02-28T09:57:32;3.10;1.00
10276;DHT22;5183;51.190;6.820;2023-02-28T10:00:10;3.00;1.00
10276;DHT22;5183;51.190;6.820;2023-02-28T10:02:52;3.00;1.00
10276;DHT22;5183;51.190;6.820;2023-02-28T10:05:23;3.20;1.00
10276;DHT22;5183;51.190;6.820;2023-02-28T10:08:00;3.30;1.00
10276;DHT22;5183;51.190;6.820;2023-02-28T10:10:34;3.40;1.00
10276;DHT22;5183;51.190;6.820;2023-02-28T10:13:06;3.60;1.00
10276;DHT22;5183;51.190;6.820;2023-02-28T10:15:34;3.90;1.00
10276;DHT22;5183;51.190;6.820;2023-02-28T10:18:04;4.00;1.00
10276;DHT22;5183;51.190;6.820;2023-02-28T10:20:34;4.20;1.00
10276;DHT22;5183;51.190;6.820;2023-02-28T10:23:07;4.20;1.00
10276;DHT22;5183;51.190;6.820;2023-02-28T10:25:37;4.10;1.00
10276;DHT22;5183;51.190;6.820;2023-02-28T10:28:10;4.20;1.00
10276;DHT22;5183;51.190;6.820;2023-02-28T10:30:40;4.50;1.00
10276;DHT22;5183;51.190;6.820;2023-02-28T10:33:17;4.60;1.00
10276;DHT22;5183;51.190;6.820;2023-02-28T10:35:46;4.70;1.00
10276;DHT22;5183;51.190;6.820;2023-02-28T10:38:17;4.80;1.00
10276;DHT22;5183;51.190;6.820;2023-02-28T10:40:44;4.70;1.00
10276;DHT22;5183;51.190;6.820;2023-02-28T10:43:22;4.60;1.00
10276;DHT22;5183;51.190;6.820;2023-02-28T10:45:56;4.50;1.00
10276;DHT22;5183;51.190;6.820;2023-02-28T10:48:33;4.40;1.00
10276;DHT22;5183;51.190;6.820;2023-02-28T10:51:03;4.30;1.00
10276;DHT22;5183;51.190;6.820;2023-02-28T10:53:37;4.30;1.00
10276;DHT22;5183;51.190;6.820;2023-02-28T10:56:09;4.30;1.00
10276;DHT22;5183;51.190;6.820;2023-02-28T10:58:52;4.20;1.00
10276;DHT22;5183;51.190;6.820;2023-02-28T11:01:20;4.20;1.00
10276;DHT22;5183;51.190;6.820;2023-02-28T11:03:48;4.20;1.00
10276;DHT22;5183;51.190;6.820;2023-02-28T11:06:19;4.30;1.00
10276;DHT22;5183;51.190;6.820;2023-02-28T11:08:50;4.40;1.00
10276;DHT22;5183;51.190;6.820;2023-02-28T11:11:18;4.50;1.00
10276;DHT22;5183;51.190;6.820;2023-02-28T11:13:47;4.50;1.00
10276;DHT22;5183;51.190;6.820;2023-02-28T11:16:16;4.60;1.00
10276;DHT22;5183;51.190;6.820;2023-02-28T11:18:47;4.60;1.00
10276;DHT22;5183;51.190;6.820;2023-02-28T11:21:23;4.70;1.00
10276;DHT22;5183;51.190;6.820;2023-02-28T11:23:54;4.70;1.00
10276;DHT22;5183;51.190;6.820;2023-02-28T11:26:37;4.70;1.00
10276;DHT22;5183;51.190;6.820;2023-02-28T11:29:11;4.80;1.00
10276;DHT22;5183;51.190;6.820;2023-02-28T11:31:38;4.80;1.00
10276;DHT22;5183;51.190;6.820;2023-02-28T11:34:23;4.90;1.00
10276;DHT22;5183;51.190;6.820;2023-02-28T11:36:53;4.80;1.00
10276;DHT22;5183;51.190;6.820;2023-02-28T11:39:21;4.90;1.00
10276;DHT22;5183;51.190;6.820;2023-02-28T11:42:04;4.80;1.00
10276;DHT22;5183;51.190;6.820;2023-02-28T11:44:48;4.90;1.00
10276;DHT22;5183;51.190;6.820;2023-02-28T11:47:28;4.90;1.00
10276;DHT22;5183;51.190;6.820;2023-02-28T11:50:13;4.80;1.00
10276;DHT22;5183;51.190;6.820;2023-02-28T11:52:47;4.60;1.00
10276;DHT22;5183;51.190;6.820;2023-02-28T11:55:18;4.40;1.00
10276;DHT22;5183;51.190;6.820;2023-02-28T11:58:05;4.20;1.00
10276;DHT22;5183;51.190;6.820;2023-02-28T12:00:57;4.10;1.00
10276;DHT22;5183;51.190;6.820;2023-02-28T12:03:31;4.30;1.00
10276;DHT22;5183;51.190;6.820;2023-02-28T12:06:10;4.40;1.00
10276;DHT22;5183;51.190;6.820;2023-02-28T12:08:52;4.70;1.00
10276;DHT22;5183;51.190;6.820;2023-02-28T12:11:32;4.90;1.00
10276;DHT22;5183;51.190;6.820;2023-02-28T12:14:25;5.10;1.00
10276;DHT22;5183;51.190;6.820;2023-02-28T12:17:02;5.40;1.00
10276;DHT22;5183;51.190;6.820;2023-02-28T12:19:38;5.40;1.00
10276;DHT22;5183;51.190;6.820;2023-02-28T12:22:16;5.60;1.00
10276;DHT22;5183;51.190;6.820;2023-02-28T12:27:52;5.90;1.00
10276;DHT22;5183;51.190;6.820;2023-02-28T12:30:22;6.00;1.00
10276;DHT22;5183;51.190;6.820;2023-02-28T12:32:54;6.00;1.00
10276;DHT22;5183;51.190;6.820;2023-02-28T12:35:25;6.00;1.00
10276;DHT22;5183;51.190;6.820;2023-02-28T12:37:57;6.00;1.00
10276;DHT22;5183;51.190;6.820;2023-02-28T12:40:43;6.00;1.00
10276;DHT22;5183;51.190;6.820;2023-02-28T12:43:13;6.20;1.00
10276;DHT22;5183;51.190;6.820;2023-02-28T12:45:44;6.30;1.00
10276;DHT22;5183;51.190;6.820;2023-02-28T12:48:17;6.30;1.00
10276;DHT22;5183;51.190;6.820;2023-02-28T12:50:47;6.40;1.00
10276;DHT22;5183;51.190;6.820;2023-02-28T12:53:18;6.40;1.00
10276;DHT22;5183;51.190;6.820;2023-02-28T12:55:55;6.70;1.00
10276;DHT22;5183;51.190;6.820;2023-02-28T12:58:29;6.90;1.00
10276;DHT22;5183;51.190;6.820;2023-02-28T13:09:53;7.20;1.00
10276;DHT22;5183;51.190;6.820;2023-02-28T13:12:22;7.40;1.00
10276;DHT22;5183;51.190;6.820;2023-02-28T13:14:50;7.50;1.00
10276;DHT22;5183;51.190;6.820;2023-02-28T13:17:19;7.60;1.00
10276;DHT22;5183;51.190;6.820;2023-02-28T13:19:56;7.70;1.00
10276;DHT22;5183;51.190;6.820;2023-02-28T13:22:44;7.80;1.00
10276;DHT22;5183;51.190;6.820;2023-02-28T13:25:50;7.70;1.00
10276;DHT22;5183;51.190;6.820;2023-02-28T13:31:20;7.60;1.00
10276;DHT22;5183;51.190;6.820;2023-02-28T13:34:13;7.80;1.00
10276;DHT22;5183;51.190;6.820;2023-02-28T13:36:40;7.70;1.00
10276;DHT22;5183;51.190;6.820;2023-02-28T13:42:32;7.90;1.00
10276;DHT22;5183;51.190;6.820;2023-02-28T13:45:24;7.80;1.00
10276;DHT22;5183;51.190;6.820;2023-02-28T13:47:58;7.90;1.00
10276;DHT22;5183;51.190;6.820;2023-02-28T13:50:32;7.90;1.00
10276;DHT22;5183;51.190;6.820;2023-02-28T13:56:23;7.90;1.00
10276;DHT22;5183;51.190;6.820;2023-02-28T13:58:56;8.10;1.00
10276;DHT22;5183;51.190;6.820;2023-02-28T14:01:45;8.20;1.00
10276;DHT22;5183;51.190;6.820;2023-02-28T14:04:54;8.30;1.00
10276;DHT22;5183;51.190;6.820;2023-02-28T14:07:27;8.40;1.00
10276;DHT22;5183;51.190;6.820;2023-02-28T14:09:59;8.40;1.00
10276;DHT22;5183;51.190;6.820;2023-02-28T14:15:56;8.30;1.00
10276;DHT22;5183;51.190;6.820;2023-02-28T14:18:29;8.40;1.00
10276;DHT22;5183;51.190;6.820;2023-02-28T14:21:08;8.30;1.00
10276;DHT22;5183;51.190;6.820;2023-02-28T14:23:57;8.60;1.00
10276;DHT22;5183;51.190;6.820;2023-02-28T14:26:35;8.50;1.00
10276;DHT22;5183;51.190;6.820;2023-02-28T14:29:18;8.50;1.00
10276;DHT22;5183;51.190;6.820;2023-02-28T14:31:57;8.60;1.00
10276;DHT22;5183;51.190;6.820;2023-02-28T14:34:35;8.60;1.00
10276;DHT22;5183;51.190;6.820;2023-02-28T14:37:05;8.60;1.00
10276;DHT22;5183;51.190;6.820;2023-02-28T14:39:33;8.60;1.00
10276;DHT22;5183;51.190;6.820;2023-02-28T14:42:02;8.70;1.00
10276;DHT22;5183;51.190;6.820;2023-02-28T14:44:31;8.70;1.00
10276;DHT22;5183;51.190;6.820;2023-02-28T14:46:59;8.80;1.00
10276;DHT22;5183;51.190;6.820;2023-02-28T14:49:31;8.80;1.00
10276;DHT22;5183;51.190;6.820;2023-02-28T14:52:07;8.60;1.00
10276;DHT22;5183;51.190;6.820;2023-02-28T14:54:38;8.60;1.00
10276;DHT22;5183;51.190;6.820;2023-02-28T14:57:05;8.70;1.00
10276;DHT22;5183;51.190;6.820;2023-02-28T14:59:34;8.80;1.00
10276;DHT22;5183;51.190;6.820;2023-02-28T15:02:16;8.70;1.00
10276;DHT22;5183;51.190;6.820;2023-02-28T15:04:44;8.70;1.00
10276;DHT22;5183;51.190;6.820;2023-02-28T15:07:19;8.80;1.00
10276;DHT22;5183;51.190;6.820;2023-02-28T15:10:10;8.90;1.00
10276;DHT22;5183;51.190;6.820;2023-02-28T15:12:39;8.90;1.00
10276;DHT22;5183;51.190;6.820;2023-02-28T15:15:14;8.70;1.00
10276;DHT22;5183;51.190;6.820;2023-02-28T15:17:44;8.70;1.00
10276;DHT22;5183;51.190;6.820;2023-02-28T15:20:13;8.60;1.00
10276;DHT22;5183;51.190;6.820;2023-02-28T15:22:43;8.60;1.00
10276;DHT22;5183;51.190;6.820;2023-02-28T15:25:16;8.70;1.00
10276;DHT22;5183;51.190;6.820;2023-02-28T15:27:47;8.70;1.00
10276;DHT22;5183;51.190;6.820;2023-02-28T15:30:17;8.60;1.00
10276;DHT22;5183;51.190;6.820;2023-02-28T15:32:45;8.70;1.00
10276;DHT22;5183;51.190;6.820;2023-02-28T15:35:31;8.60;1.00
10276;DHT22;5183;51.190;6.820;2023-02-28T15:38:03;8.50;1.00
10276;DHT22;5183;51.190;6.820;2023-02-28T15:40:37;8.40;1.00
10276;DHT22;5183;51.190;6.820;2023-02-28T15:43:06;8.30;1.00
10276;DHT22;5183;51.190;6.820;2023-02-28T15:45:41;8.30;1.00
10276;DHT22;5183;51.190;6.820;2023-02-28T15:48:17;8.20;1.00
10276;DHT22;5183;51.190;6.820;2023-02-28T15:50:48;8.20;1.00
10276;DHT22;5183;51.190;6.820;2023-02-28T15:53:20;8.10;1.00
10276;DHT22;5183;51.190;6.820;2023-02-28T15:55:56;8.10;1.00
10276;DHT22;5183;51.190;6.820;2023-02-28T15:58:25;8.10;1.00
10276;DHT22;5183;51.190;6.820;2023-02-28T16:01:08;8.00;1.00
10276;DHT22;5183;51.190;6.820;2023-02-28T16:03:41;8.00;1.00
10276;DHT22;5183;51.190;6.820;2023-02-28T16:06:35;7.80;1.00
10276;DHT22;5183;51.190;6.820;2023-02-28T16:09:13;7.80;1.00
10276;DHT22;5183;51.190;6.820;2023-02-28T16:11:43;7.80;1.00
10276;DHT22;5183;51.190;6.820;2023-02-28T16:14:17;7.70;1.00
10276;DHT22;5183;51.190;6.820;2023-02-28T16:16:46;7.60;1.00
10276;DHT22;5183;51.190;6.820;2023-02-28T16:19:13;7.50;1.00
10276;DHT22;5183;51.190;6.820;2023-02-28T16:21:40;7.40;1.00
10276;DHT22;5183;51.190;6.820;2023-02-28T16:24:08;7.30;1.00
10276;DHT22;5183;51.190;6.820;2023-02-28T16:26:36;7.20;1.00
10276;DHT22;5183;51.190;6.820;2023-02-28T16:29:06;7.10;1.00
10276;DHT22;5183;51.190;6.820;2023-02-28T16:31:37;7.00;1.00
10276;DHT22;5183;51.190;6.820;2023-02-28T16:34:04;6.90;1.00
10276;DHT22;5183;51.190;6.820;2023-02-28T16:36:32;6.70;1.00
10276;DHT22;5183;51.190;6.820;2023-02-28T16:38:59;6.60;1.00
10276;DHT22;5183;51.190;6.820;2023-02-28T16:41:28;6.50;1.00
10276;DHT22;5183;51.190;6.820;2023-02-28T16:43:57;6.30;1.00
10276;DHT22;5183;51.190;6.820;2023-02-28T16:46:29;6.20;1.00
10276;DHT22;5183;51.190;6.820;2023-02-28T16:48:57;5.90;1.00
10276;DHT22;5183;51.190;6.820;2023-02-28T16:51:23;5.80;1.00
10276;DHT22;5183;51.190;6.820;2023-02-28T16:53:50;5.60;1.00
10276;DHT22;5183;51.190;6.820;2023-02-28T16:56:19;5.50;1.00
10276;DHT22;5183;51.190;6.820;2023-02-28T16:58:49;5.40;1.00